Weather at Seychelles International Airport

Public forecast

Using degrees Celsius for public forecast. Weather courtesy of forecast.io.

Current aviation weather report (METAR) for Seychelles International Airport

Retrieved 2022/08/14 14:00 UTC (36 minutes ago):

FSIA 141400Z 13020G35KT 9999 SCT019 25/22 Q1010 NOSIG

Aviation forecast (TAF) for Seychelles International Airport

Retrieved 2022/08/14 12:13 UTC (2 hours ago):

TAF FSIA 141106Z 1412/1512 13014G25KT 9999 SCT021